createdAt,value
2019-06-26T00:00:47.868Z,22.20
2019-06-26T00:03:18.620Z,22.10
2019-06-26T00:05:49.736Z,22.20
2019-06-26T00:08:20.418Z,22.10
2019-06-26T00:10:52.362Z,22.10
2019-06-26T00:13:26.591Z,22.00
2019-06-26T00:15:55.510Z,22.00
2019-06-26T00:18:26.326Z,22.00
2019-06-26T00:20:57.004Z,22.00
2019-06-26T00:23:27.709Z,21.90
2019-06-26T00:25:58.437Z,21.90
2019-06-26T00:28:29.190Z,21.90
2019-06-26T00:31:00.056Z,21.80
2019-06-26T00:33:31.039Z,21.80
2019-06-26T00:36:01.918Z,21.80
2019-06-26T00:38:32.542Z,21.80
2019-06-26T00:41:03.217Z,21.80
2019-06-26T00:43:42.201Z,21.70
2019-06-26T00:46:06.414Z,21.70
2019-06-26T00:48:37.460Z,21.60
2019-06-26T00:51:08.216Z,21.50
2019-06-26T00:53:38.967Z,21.50
2019-06-26T00:56:09.665Z,21.40
2019-06-26T00:58:40.657Z,21.30
2019-06-26T01:01:11.323Z,21.30
2019-06-26T01:03:43.164Z,21.30
2019-06-26T01:06:27.748Z,21.40
2019-06-26T01:08:58.450Z,21.40
2019-06-26T01:11:29.170Z,21.30
2019-06-26T01:13:59.857Z,21.30
2019-06-26T01:16:30.591Z,21.20
2019-06-26T01:19:01.464Z,21.20
2019-06-26T01:21:32.340Z,21.20
2019-06-26T01:24:03.384Z,21.20
2019-06-26T01:26:34.264Z,21.10
2019-06-26T01:29:05.041Z,21.10
2019-06-26T01:31:36.106Z,21.10
2019-06-26T01:34:06.800Z,21.10
2019-06-26T01:36:37.564Z,21.10
2019-06-26T01:39:08.306Z,21.10
2019-06-26T01:41:39.061Z,21.10
2019-06-26T01:44:14.867Z,21.10
2019-06-26T01:46:42.047Z,21.10
2019-06-26T01:49:14.075Z,21.10
2019-06-26T01:51:44.837Z,21.00
2019-06-26T01:54:16.440Z,21.10
2019-06-26T01:56:47.131Z,21.10
2019-06-26T01:59:18.013Z,21.00
2019-06-26T02:01:48.712Z,21.10
2019-06-26T02:04:19.589Z,21.10
2019-06-26T02:06:50.352Z,21.00
2019-06-26T02:09:20.955Z,21.00
2019-06-26T02:11:51.883Z,21.00
2019-06-26T02:14:30.859Z,20.90
2019-06-26T02:16:54.886Z,20.90
2019-06-26T02:19:25.659Z,20.90
2019-06-26T02:21:56.578Z,20.80
2019-06-26T02:24:27.440Z,20.80
2019-06-26T02:26:57.992Z,20.80
2019-06-26T02:29:28.958Z,20.80
2019-06-26T02:31:59.744Z,20.80
2019-06-26T02:34:30.437Z,20.80
2019-06-26T02:37:01.320Z,20.80
2019-06-26T02:39:32.269Z,20.70
2019-06-26T02:42:02.961Z,20.70
2019-06-26T02:44:51.349Z,20.60
2019-06-26T02:47:19.736Z,20.60
2019-06-26T02:49:39.095Z,20.60
2019-06-26T02:52:09.906Z,20.50
2019-06-26T02:54:40.787Z,20.50
2019-06-26T02:57:11.395Z,20.50
2019-06-26T02:59:42.066Z,20.50
2019-06-26T03:02:12.872Z,20.40
2019-06-26T03:04:43.608Z,20.40
2019-06-26T03:07:14.478Z,20.40
2019-06-26T03:09:45.206Z,20.40
2019-06-26T03:12:16.096Z,20.40
2019-06-26T03:14:46.848Z,20.40
2019-06-26T03:17:17.541Z,20.40
2019-06-26T03:19:48.277Z,20.40
2019-06-26T03:22:18.962Z,20.40
2019-06-26T03:24:49.626Z,20.40
2019-06-26T03:27:20.364Z,20.40
2019-06-26T03:29:51.154Z,20.40
2019-06-26T03:32:22.139Z,20.40
2019-06-26T03:34:54.080Z,20.40
2019-06-26T03:37:25.745Z,20.40
2019-06-26T03:39:56.428Z,20.40
2019-06-26T03:42:27.146Z,20.30
2019-06-26T03:44:57.857Z,20.30
2019-06-26T03:47:28.533Z,20.20
2019-06-26T03:49:59.392Z,20.20
2019-06-26T03:52:30.006Z,20.20
2019-06-26T03:55:00.977Z,20.30
2019-06-26T03:57:35.157Z,20.30
2019-06-26T04:00:29.320Z,20.40
2019-06-26T04:03:01.851Z,20.40
2019-06-26T04:05:33.148Z,20.40
2019-06-26T04:08:04.500Z,20.40
2019-06-26T04:10:36.297Z,20.40
2019-06-26T04:13:07.487Z,20.40
2019-06-26T04:15:42.513Z,20.50
2019-06-26T04:18:10.766Z,20.60
2019-06-26T04:20:43.075Z,20.90
2019-06-26T04:23:13.826Z,21.10
2019-06-26T04:25:44.716Z,21.10
2019-06-26T04:28:15.958Z,21.30
2019-06-26T04:30:49.839Z,21.30
2019-06-26T04:33:23.466Z,21.30
2019-06-26T04:35:54.480Z,21.40
2019-06-26T04:38:25.157Z,21.50
2019-06-26T04:40:55.848Z,21.50
2019-06-26T04:43:26.608Z,21.50
2019-06-26T04:45:58.866Z,21.50
2019-06-26T04:48:29.607Z,21.50
2019-06-26T04:51:00.303Z,21.50
2019-06-26T04:53:31.001Z,21.60
2019-06-26T04:56:01.905Z,21.60
2019-06-26T04:58:32.593Z,21.80
2019-06-26T05:01:03.296Z,21.90
2019-06-26T05:03:33.842Z,22.00
2019-06-26T05:06:05.438Z,22.10
2019-06-26T05:08:36.176Z,22.10
2019-06-26T05:11:06.846Z,22.20
2019-06-26T05:13:37.547Z,22.40
2019-06-26T05:16:15.167Z,22.50
2019-06-26T05:18:40.809Z,22.60
2019-06-26T05:21:11.851Z,22.70
2019-06-26T05:23:42.469Z,22.70
2019-06-26T05:26:13.189Z,22.80
2019-06-26T05:28:43.929Z,22.80
2019-06-26T05:31:15.699Z,22.80
2019-06-26T05:33:46.662Z,22.90
2019-06-26T05:36:17.331Z,22.90
2019-06-26T05:38:48.080Z,23.00
2019-06-26T05:41:18.890Z,23.20
2019-06-26T05:43:50.081Z,23.20
2019-06-26T05:46:30.412Z,23.30
2019-06-26T05:48:53.335Z,23.40
2019-06-26T05:51:23.982Z,23.40
2019-06-26T05:53:55.767Z,23.50
2019-06-26T05:56:26.533Z,23.50
2019-06-26T05:58:57.445Z,23.60
2019-06-26T06:01:28.120Z,23.60
2019-06-26T06:03:59.097Z,23.60
2019-06-26T06:06:41.032Z,23.70
2019-06-26T06:09:03.797Z,23.70
2019-06-26T06:11:34.493Z,23.70
2019-06-26T06:14:05.250Z,23.80
2019-06-26T06:16:46.872Z,23.90
2019-06-26T06:19:08.302Z,24.10
2019-06-26T06:21:39.110Z,24.30
2019-06-26T06:24:09.709Z,24.40
2019-06-26T06:26:40.519Z,24.50
2019-06-26T06:29:11.157Z,24.40
2019-06-26T06:31:41.777Z,24.40
2019-06-26T06:34:12.444Z,24.40
2019-06-26T06:36:43.129Z,24.40
2019-06-26T06:39:14.182Z,24.50
2019-06-26T06:41:45.185Z,24.50
2019-06-26T06:44:15.890Z,24.60
2019-06-26T06:47:02.455Z,24.60
2019-06-26T06:49:19.914Z,24.70
2019-06-26T06:51:50.737Z,24.70
2019-06-26T06:54:21.528Z,24.80
2019-06-26T06:56:52.264Z,24.80
2019-06-26T06:59:23.051Z,24.90
2019-06-26T07:01:54.097Z,25.00
2019-06-26T07:04:24.762Z,25.10
2019-06-26T07:06:58.625Z,25.20
2019-06-26T07:09:28.205Z,25.40
2019-06-26T07:11:58.891Z,25.40
2019-06-26T07:14:29.674Z,25.50
2019-06-26T07:17:01.531Z,25.60
2019-06-26T07:19:33.484Z,25.80
2019-06-26T07:22:07.111Z,26.00
2019-06-26T07:24:36.582Z,26.20
2019-06-26T07:27:07.165Z,26.30
2019-06-26T07:29:38.961Z,26.40
2019-06-26T07:32:09.792Z,26.60
2019-06-26T07:34:40.406Z,26.70
2019-06-26T07:37:11.126Z,26.80
2019-06-26T07:39:41.811Z,27.10
2019-06-26T07:42:12.493Z,27.20
2019-06-26T07:44:43.312Z,27.40
2019-06-26T07:47:22.964Z,27.50
2019-06-26T07:49:46.738Z,27.60
2019-06-26T07:52:17.540Z,27.60
2019-06-26T07:54:48.303Z,27.80
2019-06-26T07:57:18.960Z,27.90
2019-06-26T07:59:49.783Z,28.10
2019-06-26T08:02:20.363Z,28.20
2019-06-26T08:04:50.965Z,28.20
2019-06-26T08:07:21.677Z,28.30
2019-06-26T08:09:52.498Z,28.30
2019-06-26T08:12:24.133Z,28.40
2019-06-26T08:14:54.747Z,28.50
2019-06-26T08:17:25.518Z,28.70
2019-06-26T08:19:56.260Z,28.80
2019-06-26T08:22:26.887Z,29.00
2019-06-26T08:24:57.777Z,29.10
2019-06-26T08:27:28.397Z,29.10
2019-06-26T08:29:59.209Z,29.10
2019-06-26T08:32:30.191Z,29.20
2019-06-26T08:35:00.787Z,29.30
2019-06-26T08:37:31.892Z,29.50
2019-06-26T08:40:02.657Z,29.70
2019-06-26T08:42:33.770Z,29.90
2019-06-26T08:45:07.351Z,29.90
2019-06-26T08:47:38.059Z,30.00
2019-06-26T08:50:09.716Z,30.00
2019-06-26T08:52:40.460Z,30.20
2019-06-26T08:55:11.497Z,30.30
2019-06-26T08:57:42.412Z,30.40
2019-06-26T09:00:13.508Z,30.50
2019-06-26T09:02:44.358Z,30.60
2019-06-26T09:05:15.638Z,30.70
2019-06-26T09:07:46.753Z,30.70
2019-06-26T09:10:17.527Z,30.80
2019-06-26T09:12:48.198Z,31.00
2019-06-26T09:15:19.157Z,31.20
2019-06-26T09:17:49.842Z,31.20
2019-06-26T09:20:23.493Z,31.20
2019-06-26T09:22:54.255Z,31.30
2019-06-26T09:25:24.860Z,31.40
2019-06-26T09:27:55.455Z,31.60
2019-06-26T09:30:26.556Z,31.70
2019-06-26T09:32:57.427Z,31.80
2019-06-26T09:35:28.091Z,31.90
2019-06-26T09:37:59.267Z,32.00
2019-06-26T09:40:31.998Z,32.10
2019-06-26T09:43:02.238Z,32.30
2019-06-26T09:45:33.059Z,32.30
2019-06-26T09:48:03.709Z,32.40
2019-06-26T09:50:34.525Z,32.50
2019-06-26T09:53:05.694Z,32.50
2019-06-26T09:55:36.507Z,32.70
2019-06-26T09:58:07.168Z,32.70
2019-06-26T10:00:37.939Z,32.80
2019-06-26T10:03:08.701Z,32.90
2019-06-26T10:05:39.570Z,33.10
2019-06-26T10:08:10.410Z,33.30
2019-06-26T10:10:41.103Z,33.40
2019-06-26T10:13:11.869Z,33.50
2019-06-26T10:15:43.224Z,33.70
2019-06-26T10:18:14.194Z,33.90
2019-06-26T10:20:45.008Z,34.00
2019-06-26T10:23:16.005Z,34.10
2019-06-26T10:25:46.954Z,34.10
2019-06-26T10:28:18.090Z,34.20
2019-06-26T10:30:48.893Z,34.30
2019-06-26T10:33:19.557Z,34.40
2019-06-26T10:35:50.603Z,34.50
2019-06-26T10:38:21.458Z,34.60
2019-06-26T10:40:52.249Z,34.70
2019-06-26T10:43:22.996Z,34.90
2019-06-26T10:45:53.750Z,34.80
2019-06-26T10:48:24.557Z,34.80
2019-06-26T10:50:58.785Z,34.80
2019-06-26T10:53:27.605Z,34.80
2019-06-26T10:55:59.367Z,34.90
2019-06-26T10:58:30.112Z,35.00
2019-06-26T11:01:04.955Z,35.00
2019-06-26T11:03:35.751Z,35.00
2019-06-26T11:06:06.535Z,35.10
2019-06-26T11:08:37.329Z,35.20
2019-06-26T11:11:08.209Z,35.10
2019-06-26T11:13:38.744Z,34.90
2019-06-26T11:16:09.405Z,34.90
2019-06-26T11:18:39.947Z,34.90
2019-06-26T11:21:10.822Z,34.80
2019-06-26T11:23:41.604Z,34.70
2019-06-26T11:26:12.292Z,34.60
2019-06-26T11:28:42.981Z,34.50
2019-06-26T11:31:13.948Z,34.40
2019-06-26T11:33:44.564Z,34.30
2019-06-26T11:36:15.350Z,34.10
2019-06-26T11:38:46.034Z,34.00
2019-06-26T11:41:17.107Z,33.90
2019-06-26T11:43:47.784Z,34.00
2019-06-26T11:49:59.844Z,34.00
2019-06-26T11:52:23.048Z,34.00
2019-06-26T11:55:02.548Z,34.00
2019-06-26T11:57:26.125Z,34.00
2019-06-26T11:59:57.183Z,33.90
2019-06-26T12:02:27.792Z,33.80
2019-06-26T12:04:58.521Z,33.70
2019-06-26T12:07:29.139Z,33.60
2019-06-26T12:09:59.878Z,33.60
2019-06-26T12:12:31.749Z,33.50
2019-06-26T12:15:02.526Z,33.50
2019-06-26T12:17:33.342Z,33.50
2019-06-26T12:20:17.865Z,33.60
2019-06-26T12:22:39.229Z,33.60
2019-06-26T12:25:10.278Z,33.70
2019-06-26T12:27:41.098Z,33.80
2019-06-26T12:30:11.966Z,33.90
2019-06-26T12:33:01.153Z,34.00
2019-06-26T12:35:15.333Z,34.10
2019-06-26T12:37:46.081Z,34.20
2019-06-26T12:40:17.063Z,34.30
2019-06-26T12:42:47.940Z,34.40
2019-06-26T12:45:18.821Z,34.50
2019-06-26T12:47:49.517Z,34.70
2019-06-26T12:50:34.535Z,34.80
2019-06-26T12:52:55.113Z,34.90
2019-06-26T12:55:27.229Z,34.90
2019-06-26T12:58:11.888Z,34.80
2019-06-26T13:00:30.200Z,34.80
2019-06-26T13:03:00.720Z,34.90
2019-06-26T13:05:31.444Z,35.00
2019-06-26T13:08:02.125Z,35.00
2019-06-26T13:10:48.454Z,35.10
2019-06-26T13:13:06.132Z,35.20
2019-06-26T13:15:36.777Z,35.30
2019-06-26T13:18:07.887Z,35.20
2019-06-26T13:20:52.226Z,35.20
2019-06-26T13:23:14.679Z,35.20
2019-06-26T13:25:43.479Z,35.20
2019-06-26T13:28:14.165Z,35.10
2019-06-26T13:30:44.813Z,35.10
2019-06-26T13:33:15.427Z,35.00
2019-06-26T13:35:46.008Z,35.00
2019-06-26T13:38:17.036Z,35.00
2019-06-26T13:40:47.683Z,34.80
2019-06-26T13:43:18.355Z,34.70
2019-06-26T13:45:49.040Z,34.40
2019-06-26T13:48:19.553Z,34.10
2019-06-26T13:50:50.225Z,34.10
2019-06-26T13:53:21.918Z,34.10
2019-06-26T13:55:52.604Z,34.10
2019-06-26T13:58:23.192Z,34.10
2019-06-26T14:00:54.209Z,34.20
2019-06-26T14:03:24.862Z,34.20
2019-06-26T14:05:55.761Z,34.30
2019-06-26T14:08:26.540Z,34.30
2019-06-26T14:10:57.656Z,34.40
2019-06-26T14:13:29.501Z,34.20
2019-06-26T14:16:00.052Z,34.10
2019-06-26T14:18:30.861Z,34.00
2019-06-26T14:21:01.669Z,33.90
2019-06-26T14:23:32.386Z,33.70
2019-06-26T14:26:03.208Z,33.60
2019-06-26T14:28:33.873Z,33.50
2019-06-26T14:31:04.908Z,33.50
2019-06-26T14:33:36.358Z,33.50
2019-06-26T14:36:07.350Z,33.40
2019-06-26T14:38:39.166Z,33.30
2019-06-26T14:41:10.009Z,33.30
2019-06-26T14:43:40.694Z,33.20
2019-06-26T14:46:12.499Z,33.20
2019-06-26T14:48:43.445Z,33.20
2019-06-26T14:51:14.136Z,33.20
2019-06-26T14:53:44.794Z,33.10
2019-06-26T14:56:15.469Z,33.00
2019-06-26T14:58:46.240Z,33.00
2019-06-26T15:01:16.866Z,33.00
2019-06-26T15:03:48.741Z,33.00
2019-06-26T15:06:19.346Z,32.90
2019-06-26T15:08:50.197Z,32.90
2019-06-26T15:11:20.875Z,32.90
2019-06-26T15:13:51.479Z,32.80
2019-06-26T15:16:22.292Z,32.80
2019-06-26T15:18:52.930Z,32.80
2019-06-26T15:21:23.748Z,32.80
2019-06-26T15:23:54.452Z,32.80
2019-06-26T15:26:25.267Z,32.70
2019-06-26T15:28:55.973Z,32.70
2019-06-26T15:31:26.701Z,32.70
2019-06-26T15:33:57.645Z,32.80
2019-06-26T15:36:28.373Z,32.80
2019-06-26T15:38:59.433Z,32.80
2019-06-26T15:41:30.500Z,32.80
2019-06-26T15:44:01.201Z,32.80
2019-06-26T15:46:31.947Z,32.70
2019-06-26T15:49:02.810Z,32.70
2019-06-26T15:51:33.628Z,32.70
2019-06-26T15:54:04.314Z,32.60
2019-06-26T15:56:35.052Z,32.60
2019-06-26T15:59:05.726Z,32.60
2019-06-26T16:01:36.556Z,32.60
2019-06-26T16:04:07.285Z,32.50
2019-06-26T16:06:37.893Z,32.50
2019-06-26T16:09:08.735Z,32.50
2019-06-26T16:11:39.367Z,32.50
2019-06-26T16:14:10.251Z,32.40
2019-06-26T16:16:42.501Z,32.40
2019-06-26T16:19:14.833Z,32.40
2019-06-26T16:21:45.521Z,32.40
2019-06-26T16:24:16.216Z,32.40
2019-06-26T16:26:46.977Z,32.40
2019-06-26T16:29:17.633Z,32.30
2019-06-26T16:31:48.387Z,32.30
2019-06-26T16:34:19.305Z,32.30
2019-06-26T16:36:50.121Z,32.30
2019-06-26T16:39:22.359Z,32.30
2019-06-26T16:41:53.107Z,32.30
2019-06-26T16:44:24.053Z,32.30
2019-06-26T16:46:54.783Z,32.30
2019-06-26T16:49:25.635Z,32.20
2019-06-26T16:51:56.504Z,32.20
2019-06-26T16:54:27.178Z,32.20
2019-06-26T16:56:57.713Z,32.20
2019-06-26T16:59:28.664Z,32.20
2019-06-26T17:01:59.358Z,32.20
2019-06-26T17:04:30.041Z,32.10
2019-06-26T17:07:00.645Z,32.10
2019-06-26T17:09:31.498Z,32.10
2019-06-26T17:12:02.226Z,32.00
2019-06-26T17:14:33.241Z,32.00
2019-06-26T17:17:04.229Z,32.00
2019-06-26T17:19:35.121Z,32.00
2019-06-26T17:22:06.111Z,32.00
2019-06-26T17:24:36.779Z,31.90
2019-06-26T17:27:07.761Z,31.90
2019-06-26T17:29:38.654Z,31.90
2019-06-26T17:32:09.514Z,31.80
2019-06-26T17:34:40.559Z,31.80
2019-06-26T17:37:11.538Z,31.80
2019-06-26T17:39:42.133Z,31.70
2019-06-26T17:42:12.811Z,31.70
2019-06-26T17:44:43.564Z,31.70
2019-06-26T17:47:14.245Z,31.60
2019-06-26T17:49:45.135Z,31.60
2019-06-26T17:52:16.134Z,31.60
2019-06-26T17:54:47.082Z,31.60
2019-06-26T17:57:18.151Z,31.50
2019-06-26T17:59:48.923Z,31.40
2019-06-26T18:02:20.601Z,31.40
2019-06-26T18:04:51.530Z,31.30
2019-06-26T18:07:22.161Z,31.30
2019-06-26T18:09:53.050Z,31.20
2019-06-26T18:12:23.672Z,31.20
2019-06-26T18:14:55.367Z,31.10
2019-06-26T18:17:26.111Z,31.10
2019-06-26T18:19:56.894Z,31.10
2019-06-26T18:22:27.713Z,31.00
2019-06-26T18:24:58.689Z,30.90
2019-06-26T18:27:29.392Z,30.90
2019-06-26T18:30:01.961Z,30.80
2019-06-26T18:32:32.858Z,30.80
2019-06-26T18:35:04.794Z,30.70
2019-06-26T18:37:35.940Z,30.60
2019-06-26T18:40:07.414Z,30.50
2019-06-26T18:42:38.368Z,30.50
2019-06-26T18:45:09.543Z,30.40
2019-06-26T18:47:40.251Z,30.40
2019-06-26T18:50:10.967Z,30.20
2019-06-26T18:52:41.818Z,30.20
2019-06-26T18:55:12.959Z,30.10
2019-06-26T18:57:43.902Z,30.00
2019-06-26T19:00:16.686Z,29.90
2019-06-26T19:02:47.553Z,29.80
2019-06-26T19:05:18.238Z,29.80
2019-06-26T19:07:49.074Z,29.70
2019-06-26T19:10:20.848Z,29.60
2019-06-26T19:12:51.548Z,29.50
2019-06-26T19:15:22.370Z,29.40
2019-06-26T19:17:53.147Z,29.40
2019-06-26T19:20:24.025Z,29.20
2019-06-26T19:22:54.750Z,29.10
2019-06-26T19:25:25.475Z,29.00
2019-06-26T19:27:57.730Z,28.90
2019-06-26T19:30:28.439Z,28.90
2019-06-26T19:32:59.221Z,28.70
2019-06-26T19:35:30.114Z,28.70
2019-06-26T19:38:01.084Z,28.60
2019-06-26T19:40:31.790Z,28.50
2019-06-26T19:43:02.599Z,28.40
2019-06-26T19:45:33.541Z,28.30
2019-06-26T19:48:04.548Z,28.30
2019-06-26T19:50:35.537Z,28.20
2019-06-26T19:53:06.240Z,28.10
2019-06-26T19:55:37.022Z,28.00
2019-06-26T19:58:09.756Z,27.90
2019-06-26T20:00:40.988Z,27.80
2019-06-26T20:03:11.675Z,27.70
2019-06-26T20:05:42.953Z,27.70
2019-06-26T20:08:13.720Z,27.70
2019-06-26T20:10:44.474Z,27.60
2019-06-26T20:13:15.174Z,27.60
2019-06-26T20:15:45.914Z,27.50
2019-06-26T20:18:16.809Z,27.40
2019-06-26T20:20:47.692Z,27.40
2019-06-26T20:23:18.426Z,27.30
2019-06-26T20:25:49.404Z,27.20
2019-06-26T20:28:20.580Z,27.20
2019-06-26T20:30:51.267Z,27.10
2019-06-26T20:33:22.269Z,26.90
2019-06-26T20:35:52.948Z,26.90
2019-06-26T20:38:23.555Z,26.80
2019-06-26T20:40:54.231Z,26.70
2019-06-26T20:43:24.942Z,26.70
2019-06-26T20:45:55.685Z,26.70
2019-06-26T20:48:26.827Z,26.60
2019-06-26T20:50:57.634Z,26.60
2019-06-26T20:53:28.689Z,26.60
2019-06-26T20:55:59.357Z,26.50
2019-06-26T20:58:30.059Z,26.60
2019-06-26T21:01:02.629Z,26.50
2019-06-26T21:03:36.113Z,26.40
2019-06-26T21:06:07.164Z,26.30
2019-06-26T21:08:37.869Z,26.30
2019-06-26T21:11:08.494Z,26.30
2019-06-26T21:13:39.768Z,26.30
2019-06-26T21:16:10.610Z,26.20
2019-06-26T21:18:41.824Z,26.20
2019-06-26T21:21:12.834Z,26.20
2019-06-26T21:23:43.732Z,26.20
2019-06-26T21:26:14.804Z,26.20
2019-06-26T21:28:45.572Z,26.20
2019-06-26T21:31:16.105Z,26.10
2019-06-26T21:33:47.101Z,26.00
2019-06-26T21:36:17.957Z,26.00
2019-06-26T21:38:48.657Z,25.90
2019-06-26T21:41:19.383Z,25.80
2019-06-26T21:43:50.191Z,25.80
2019-06-26T21:46:21.263Z,25.70
2019-06-26T21:48:52.083Z,25.80
2019-06-26T21:51:24.710Z,25.80
2019-06-26T21:53:55.551Z,25.80
2019-06-26T21:56:44.236Z,25.80
2019-06-26T21:59:32.804Z,25.70
2019-06-26T22:02:21.335Z,25.70
2019-06-26T22:04:56.542Z,25.70
2019-06-26T22:07:45.049Z,25.60
2019-06-26T22:10:26.607Z,25.40
2019-06-26T22:12:57.487Z,25.30
2019-06-26T22:15:28.261Z,25.20
2019-06-26T22:17:59.100Z,25.20
2019-06-26T22:20:29.963Z,25.10
2019-06-26T22:23:00.916Z,25.10
2019-06-26T22:25:31.738Z,25.00
2019-06-26T22:28:02.825Z,24.90
2019-06-26T22:30:33.779Z,24.90
2019-06-26T22:33:04.620Z,24.80
2019-06-26T22:35:35.356Z,24.80
2019-06-26T22:38:06.093Z,24.80
2019-06-26T22:40:38.015Z,24.90
2019-06-26T22:43:08.716Z,24.90
2019-06-26T22:45:40.259Z,24.90
2019-06-26T22:48:12.108Z,24.80
2019-06-26T22:50:42.973Z,24.70
2019-06-26T22:53:14.876Z,24.70
2019-06-26T22:55:48.711Z,24.70
2019-06-26T22:58:19.545Z,24.70
2019-06-26T23:00:50.387Z,24.80
2019-06-26T23:03:21.300Z,24.80
2019-06-26T23:05:52.302Z,24.80
2019-06-26T23:08:23.300Z,24.80
2019-06-26T23:10:54.138Z,24.80
2019-06-26T23:13:25.022Z,24.70
2019-06-26T23:15:55.719Z,24.50
2019-06-26T23:18:26.529Z,24.50
2019-06-26T23:20:57.303Z,24.50
2019-06-26T23:23:27.985Z,24.50
2019-06-26T23:25:58.890Z,24.50
2019-06-26T23:28:29.886Z,24.50
2019-06-26T23:31:00.576Z,24.50
2019-06-26T23:33:32.317Z,24.50
2019-06-26T23:36:03.154Z,24.50
2019-06-26T23:38:34.145Z,24.50
2019-06-26T23:41:05.304Z,24.50
2019-06-26T23:43:36.086Z,24.40
2019-06-26T23:46:06.970Z,24.30
2019-06-26T23:48:37.916Z,24.40
2019-06-26T23:51:08.610Z,24.40
2019-06-26T23:53:39.253Z,24.40
2019-06-26T23:56:10.182Z,24.40
2019-06-26T23:58:41.264Z,24.50
